createdAt,value
2018-05-14T00:00:01.304Z,13.94
2018-05-14T00:00:05.520Z,13.94
2018-05-14T00:00:09.731Z,13.94
2018-05-14T00:00:13.729Z,13.93
2018-05-14T00:00:17.940Z,13.93
2018-05-14T00:00:22.052Z,13.93
2018-05-14T00:00:26.158Z,13.92
2018-05-14T00:00:30.482Z,13.92
2018-05-14T00:00:34.583Z,13.92
2018-05-14T00:00:38.908Z,13.92
2018-05-14T00:00:43.223Z,13.92
2018-05-14T00:00:47.436Z,13.91
2018-05-14T00:00:51.653Z,13.91
2018-05-14T00:00:55.972Z,13.9
2018-05-14T00:01:00.075Z,13.91
2018-05-14T00:01:04.168Z,13.91
2018-05-14T00:01:08.383Z,13.9
2018-05-14T00:01:12.722Z,13.9
2018-05-14T00:01:17.045Z,13.9
2018-05-14T00:01:21.260Z,13.9
2018-05-14T00:01:25.587Z,13.89
2018-05-14T00:01:29.693Z,13.89
2018-05-14T00:01:33.900Z,13.89
2018-05-14T00:01:38.005Z,13.88
2018-05-14T00:01:42.215Z,13.88
2018-05-14T00:01:46.425Z,13.87
2018-05-14T00:01:50.634Z,13.88
2018-05-14T00:01:54.733Z,13.88
2018-05-14T00:01:59.049Z,13.88
2018-05-14T00:02:03.260Z,13.87
2018-05-14T00:02:07.473Z,13.87
2018-05-14T00:02:11.688Z,13.86
2018-05-14T00:02:16.003Z,13.87
2018-05-14T00:02:20.322Z,13.86
2018-05-14T00:02:24.535Z,13.86
2018-05-14T00:02:28.753Z,13.87
2018-05-14T00:02:33.068Z,13.85
2018-05-14T00:02:37.173Z,13.86
2018-05-14T00:02:41.389Z,13.84
2018-05-14T00:02:45.735Z,13.86
2018-05-14T00:02:49.842Z,13.85
2018-05-14T00:02:54.163Z,13.85
2018-05-14T00:02:58.484Z,13.84
2018-05-14T00:03:02.538Z,13.84
2018-05-14T00:03:06.535Z,13.84
2018-05-14T00:03:10.858Z,13.84
2018-05-14T00:03:15.069Z,13.84
2018-05-14T00:03:19.291Z,13.84
2018-05-14T00:03:23.391Z,13.83
2018-05-14T00:03:27.598Z,13.84
2018-05-14T00:03:31.808Z,13.83
2018-05-14T00:03:36.015Z,13.83
2018-05-14T00:03:40.654Z,13.82
2018-05-14T00:03:45.366Z,13.83
2018-05-14T00:03:50.055Z,13.81
2018-05-14T00:03:54.688Z,13.81
2018-05-14T00:03:58.900Z,13.82
2018-05-14T00:04:03.000Z,13.81
2018-05-14T00:04:07.224Z,13.8
2018-05-14T00:04:11.218Z,13.8
2018-05-14T00:04:15.430Z,13.8
2018-05-14T00:04:19.641Z,13.79
2018-05-14T00:04:23.856Z,13.8
2018-05-14T00:04:27.979Z,13.79
2018-05-14T00:04:32.194Z,13.8
2018-05-14T00:04:36.480Z,13.79
2018-05-14T00:04:40.698Z,13.79
2018-05-14T00:04:44.908Z,13.78
2018-05-14T00:04:49.006Z,13.79
2018-05-14T00:04:53.319Z,13.78
2018-05-14T00:04:57.653Z,13.78
2018-05-14T00:05:01.790Z,13.77
2018-05-14T00:05:05.793Z,13.78
2018-05-14T00:05:10.113Z,13.77
2018-05-14T00:05:14.436Z,13.77
2018-05-14T00:05:18.431Z,13.77
2018-05-14T00:05:22.643Z,13.77
2018-05-14T00:05:26.849Z,13.76
2018-05-14T00:05:30.843Z,13.76
2018-05-14T00:05:34.945Z,13.76
2018-05-14T00:05:39.152Z,13.77
2018-05-14T00:05:43.466Z,13.76
2018-05-14T00:05:47.684Z,13.76
2018-05-14T00:05:51.895Z,13.75
2018-05-14T00:05:56.085Z,13.76
2018-05-14T00:06:00.403Z,13.75
2018-05-14T00:06:04.563Z,13.76
2018-05-14T00:06:08.669Z,13.75
2018-05-14T00:06:12.779Z,13.75
2018-05-14T00:06:17.107Z,13.75
2018-05-14T00:06:21.319Z,13.75
2018-05-14T00:06:25.726Z,13.74
2018-05-14T00:06:29.931Z,13.74
2018-05-14T00:06:34.244Z,13.74
2018-05-14T00:06:38.353Z,13.73
2018-05-14T00:06:42.666Z,13.74
2018-05-14T00:06:46.551Z,13.73
2018-05-14T00:06:50.761Z,13.73
2018-05-14T00:06:54.970Z,13.74
2018-05-14T00:06:59.188Z,13.73
2018-05-14T00:07:03.516Z,13.73
2018-05-14T00:07:07.707Z,13.72
2018-05-14T00:07:11.914Z,13.73
2018-05-14T00:07:16.026Z,13.73
2018-05-14T00:07:20.352Z,13.72
2018-05-14T00:07:24.672Z,13.72
2018-05-14T00:07:28.886Z,13.72
2018-05-14T00:07:33.118Z,13.72
2018-05-14T00:07:37.434Z,13.72
2018-05-14T00:07:41.754Z,13.72
2018-05-14T00:07:45.859Z,13.71
2018-05-14T00:07:50.073Z,13.71
2018-05-14T00:07:54.174Z,13.71
2018-05-14T00:07:58.282Z,13.71
2018-05-14T00:08:02.285Z,13.71
2018-05-14T00:08:06.494Z,13.7
2018-05-14T00:08:10.700Z,13.7
2018-05-14T00:08:14.805Z,13.71
2018-05-14T00:08:18.910Z,13.71
2018-05-14T00:08:23.120Z,13.7
2018-05-14T00:08:27.330Z,13.7
2018-05-14T00:08:31.733Z,13.7
2018-05-14T00:08:35.944Z,13.7
2018-05-14T00:08:40.263Z,13.71
2018-05-14T00:08:44.466Z,13.7
2018-05-14T00:08:48.578Z,13.7
2018-05-14T00:08:52.900Z,13.7
2018-05-14T00:08:57.222Z,13.7
2018-05-14T00:09:01.442Z,13.7
2018-05-14T00:09:05.547Z,13.69
2018-05-14T00:09:09.653Z,13.7
2018-05-14T00:09:13.860Z,13.69
2018-05-14T00:09:18.180Z,13.7
2018-05-14T00:09:22.498Z,13.7
2018-05-14T00:09:26.714Z,13.7
2018-05-14T00:09:30.831Z,13.7
2018-05-14T00:09:35.040Z,13.69
2018-05-14T00:09:39.248Z,13.69
2018-05-14T00:09:43.460Z,13.69
2018-05-14T00:09:47.796Z,13.68
2018-05-14T00:09:52.124Z,13.68
2018-05-14T00:09:56.234Z,13.69
2018-05-14T00:10:00.582Z,13.68
2018-05-14T00:10:04.583Z,13.68
2018-05-14T00:10:08.584Z,13.68
2018-05-14T00:10:12.685Z,13.68
2018-05-14T00:10:16.677Z,13.68
2018-05-14T00:10:20.996Z,13.67
2018-05-14T00:10:25.219Z,13.67
2018-05-14T00:10:29.625Z,13.68
2018-05-14T00:10:33.960Z,13.68
2018-05-14T00:10:38.276Z,13.68
2018-05-14T00:10:42.488Z,13.68
2018-05-14T00:10:46.588Z,13.67
2018-05-14T00:10:50.912Z,13.67
2018-05-14T00:10:55.137Z,13.67
2018-05-14T00:10:59.455Z,13.67
2018-05-14T00:11:03.667Z,13.67
2018-05-14T00:11:07.770Z,13.67
2018-05-14T00:11:11.983Z,13.67
2018-05-14T00:11:16.199Z,13.66
2018-05-14T00:11:20.408Z,13.67
2018-05-14T00:11:24.727Z,13.67
2018-05-14T00:11:28.836Z,13.67
2018-05-14T00:11:33.055Z,13.67
2018-05-14T00:11:37.163Z,13.67
2018-05-14T00:11:41.567Z,13.66
2018-05-14T00:11:45.781Z,13.66
2018-05-14T00:11:49.884Z,13.66
2018-05-14T00:11:54.200Z,13.66
2018-05-14T00:11:58.411Z,13.66
2018-05-14T00:12:02.621Z,13.66
2018-05-14T00:12:06.612Z,13.66
2018-05-14T00:12:10.716Z,13.67
2018-05-14T00:12:14.925Z,13.66
2018-05-14T00:12:19.141Z,13.66
2018-05-14T00:12:23.347Z,13.66
2018-05-14T00:12:27.460Z,13.66
2018-05-14T00:12:31.668Z,13.65
2018-05-14T00:12:35.985Z,13.65
2018-05-14T00:12:40.311Z,13.65
2018-05-14T00:12:44.619Z,13.65
2018-05-14T00:12:48.718Z,13.65
2018-05-14T00:12:52.834Z,13.65
2018-05-14T00:12:57.054Z,13.65
2018-05-14T00:13:01.455Z,13.65
2018-05-14T00:13:05.567Z,13.65
2018-05-14T00:13:09.558Z,13.65
2018-05-14T00:13:13.879Z,13.65
2018-05-14T00:13:18.090Z,13.65
2018-05-14T00:13:22.405Z,13.64
2018-05-14T00:13:26.732Z,13.64
2018-05-14T00:13:30.846Z,13.64
2018-05-14T00:13:35.164Z,13.64
2018-05-14T00:13:39.488Z,13.63
2018-05-14T00:13:43.832Z,13.63
2018-05-14T00:13:48.165Z,13.64
2018-05-14T00:13:52.384Z,13.64
2018-05-14T00:13:56.602Z,13.64
2018-05-14T00:14:00.710Z,13.64
2018-05-14T00:14:04.601Z,13.64
2018-05-14T00:14:08.824Z,13.63
2018-05-14T00:14:13.150Z,13.63
2018-05-14T00:14:17.362Z,13.63
2018-05-14T00:14:21.679Z,13.63
2018-05-14T00:14:25.567Z,13.63
2018-05-14T00:14:29.886Z,13.64
2018-05-14T00:14:33.995Z,13.63
2018-05-14T00:14:38.093Z,13.62
2018-05-14T00:14:42.408Z,13.62
2018-05-14T00:14:46.803Z,13.63
2018-05-14T00:14:51.130Z,13.63
2018-05-14T00:14:55.345Z,13.63
2018-05-14T00:14:59.557Z,13.62
2018-05-14T00:15:03.666Z,13.62
2018-05-14T00:15:07.888Z,13.62
2018-05-14T00:15:12.202Z,13.61
2018-05-14T00:15:16.523Z,13.62
2018-05-14T00:15:20.737Z,13.62
2018-05-14T00:15:24.957Z,13.61
2018-05-14T00:15:29.273Z,13.61
2018-05-14T00:15:33.377Z,13.61
2018-05-14T00:15:37.690Z,13.61
2018-05-14T00:15:42.003Z,13.61
2018-05-14T00:15:46.224Z,13.6
2018-05-14T00:15:50.436Z,13.6
2018-05-14T00:15:54.649Z,13.6
2018-05-14T00:15:58.985Z,13.61
2018-05-14T00:16:03.194Z,13.61
2018-05-14T00:16:07.295Z,13.61
2018-05-14T00:16:11.401Z,13.6
2018-05-14T00:16:15.621Z,13.6
2018-05-14T00:16:19.721Z,13.59
2018-05-14T00:16:23.827Z,13.6
2018-05-14T00:16:28.038Z,13.6
2018-05-14T00:16:32.353Z,13.59
2018-05-14T00:16:36.672Z,13.6
2018-05-14T00:16:40.888Z,13.59
2018-05-14T00:16:45.219Z,13.59
2018-05-14T00:16:49.424Z,13.58
2018-05-14T00:16:53.752Z,13.59
2018-05-14T00:16:57.971Z,13.59
2018-05-14T00:17:02.190Z,13.59
2018-05-14T00:17:06.429Z,13.59
2018-05-14T00:17:10.662Z,13.59
2018-05-14T00:17:14.982Z,13.59
2018-05-14T00:17:19.203Z,13.58
2018-05-14T00:17:23.423Z,13.59
2018-05-14T00:17:27.758Z,13.58
2018-05-14T00:17:31.970Z,13.58
2018-05-14T00:17:36.180Z,13.58
2018-05-14T00:17:40.390Z,13.58
2018-05-14T00:17:44.717Z,13.59
2018-05-14T00:17:48.926Z,13.58
2018-05-14T00:17:53.240Z,13.57
2018-05-14T00:17:57.555Z,13.58
2018-05-14T00:18:01.768Z,13.57
2018-05-14T00:18:05.868Z,13.57
2018-05-14T00:18:10.089Z,13.57
2018-05-14T00:18:14.311Z,13.57
2018-05-14T00:18:18.626Z,13.57
2018-05-14T00:18:22.947Z,13.57
2018-05-14T00:18:27.264Z,13.57
2018-05-14T00:18:31.367Z,13.57
2018-05-14T00:18:35.476Z,13.56
2018-05-14T00:18:39.580Z,13.57
2018-05-14T00:18:43.987Z,13.56
2018-05-14T00:18:48.201Z,13.56
2018-05-14T00:18:52.520Z,13.56
2018-05-14T00:18:56.618Z,13.56
2018-05-14T00:19:00.957Z,13.56
2018-05-14T00:19:05.109Z,13.56
2018-05-14T00:19:09.317Z,13.56
2018-05-14T00:19:13.423Z,13.56
2018-05-14T00:19:17.748Z,13.55
2018-05-14T00:19:22.067Z,13.56
2018-05-14T00:19:26.173Z,13.56
2018-05-14T00:19:30.408Z,13.55
2018-05-14T00:19:34.740Z,13.55
2018-05-14T00:19:39.156Z,13.55
2018-05-14T00:19:43.477Z,13.55
2018-05-14T00:19:47.475Z,13.54
2018-05-14T00:19:51.678Z,13.55
2018-05-14T00:19:55.885Z,13.55
2018-05-14T00:20:00.200Z,13.55
2018-05-14T00:20:04.091Z,13.55
2018-05-14T00:20:08.090Z,13.54
2018-05-14T00:20:12.420Z,13.55
2018-05-14T00:20:16.629Z,13.54
2018-05-14T00:20:20.856Z,13.54
2018-05-14T00:20:24.845Z,13.53
2018-05-14T00:20:29.061Z,13.54
2018-05-14T00:20:33.374Z,13.53
2018-05-14T00:20:37.662Z,13.53
2018-05-14T00:20:41.786Z,13.54
2018-05-14T00:20:46.107Z,13.54
2018-05-14T00:20:50.334Z,13.54
2018-05-14T00:20:54.542Z,13.54
2018-05-14T00:20:58.867Z,13.53
2018-05-14T00:21:03.170Z,13.53
2018-05-14T00:21:07.163Z,13.54
2018-05-14T00:21:11.489Z,13.53
2018-05-14T00:21:15.703Z,13.53
2018-05-14T00:21:19.912Z,13.53
2018-05-14T00:21:24.018Z,13.53
2018-05-14T00:21:28.226Z,13.53
2018-05-14T00:21:32.325Z,13.53
2018-05-14T00:21:36.617Z,13.52
2018-05-14T00:21:40.831Z,13.52
2018-05-14T00:21:45.041Z,13.53
2018-05-14T00:21:49.362Z,13.53
2018-05-14T00:21:53.680Z,13.53
2018-05-14T00:21:57.893Z,13.53
2018-05-14T00:22:01.996Z,13.52
2018-05-14T00:22:06.213Z,13.53
2018-05-14T00:22:10.424Z,13.53
2018-05-14T00:22:14.534Z,13.53
2018-05-14T00:22:18.746Z,13.53
2018-05-14T00:22:22.961Z,13.54
2018-05-14T00:22:27.283Z,13.53
2018-05-14T00:22:31.603Z,13.52
2018-05-14T00:22:35.928Z,13.53
2018-05-14T00:22:40.137Z,13.53
2018-05-14T00:22:44.346Z,13.53
2018-05-14T00:22:48.672Z,13.53
2018-05-14T00:22:52.890Z,13.53
2018-05-14T00:22:57.205Z,13.54
2018-05-14T00:23:01.520Z,13.54
2018-05-14T00:23:05.603Z,13.53
2018-05-14T00:23:09.711Z,13.53
2018-05-14T00:23:14.032Z,13.53
2018-05-14T00:23:18.245Z,13.53
2018-05-14T00:23:22.565Z,13.53
2018-05-14T00:23:26.778Z,13.53
2018-05-14T00:23:30.984Z,13.53
2018-05-14T00:23:35.303Z,13.53
2018-05-14T00:23:39.617Z,13.53
2018-05-14T00:23:43.828Z,13.53
2018-05-14T00:23:48.149Z,13.52
2018-05-14T00:23:52.469Z,13.53
2018-05-14T00:23:56.681Z,13.53
2018-05-14T00:24:00.783Z,13.52
2018-05-14T00:24:04.992Z,13.53
2018-05-14T00:24:08.988Z,13.52
2018-05-14T00:24:13.307Z,13.52
2018-05-14T00:24:17.625Z,13.53
2018-05-14T00:24:21.941Z,13.53
2018-05-14T00:24:26.188Z,13.53
2018-05-14T00:24:30.457Z,13.53
2018-05-14T00:24:34.666Z,13.54
2018-05-14T00:24:38.873Z,13.53
2018-05-14T00:24:43.200Z,13.52
2018-05-14T00:24:47.420Z,13.53
2018-05-14T00:24:51.749Z,13.53
2018-05-14T00:24:55.958Z,13.53
2018-05-14T00:25:00.278Z,13.53
2018-05-14T00:25:04.272Z,13.53
2018-05-14T00:25:08.486Z,13.53
2018-05-14T00:25:12.807Z,13.53
2018-05-14T00:25:16.919Z,13.53
2018-05-14T00:25:21.240Z,13.53
2018-05-14T00:25:25.345Z,13.52
2018-05-14T00:25:29.681Z,13.52
2018-05-14T00:25:33.785Z,13.52
2018-05-14T00:25:38.100Z,13.52
2018-05-14T00:25:42.307Z,13.51
2018-05-14T00:25:46.515Z,13.52
2018-05-14T00:25:50.730Z,13.51
2018-05-14T00:25:54.735Z,13.52
2018-05-14T00:25:59.054Z,13.51
2018-05-14T00:26:03.262Z,13.52
2018-05-14T00:26:07.366Z,13.51
2018-05-14T00:26:11.365Z,13.51
2018-05-14T00:26:15.580Z,13.51
2018-05-14T00:26:19.572Z,13.52
2018-05-14T00:26:23.675Z,13.52
2018-05-14T00:26:27.893Z,13.51
2018-05-14T00:26:31.988Z,13.51
2018-05-14T00:26:36.204Z,13.52
2018-05-14T00:26:40.530Z,13.52
2018-05-14T00:26:44.748Z,13.52
2018-05-14T00:26:48.966Z,13.51
2018-05-14T00:26:53.297Z,13.52
2018-05-14T00:26:57.509Z,13.52
2018-05-14T00:27:01.832Z,13.51
2018-05-14T00:27:06.051Z,13.52
2018-05-14T00:27:10.348Z,13.52
2018-05-14T00:27:14.449Z,13.52
2018-05-14T00:27:18.764Z,13.52
2018-05-14T00:27:22.864Z,13.51
2018-05-14T00:27:27.188Z,13.52
2018-05-14T00:27:31.516Z,13.51
2018-05-14T00:27:35.407Z,13.51
2018-05-14T00:27:39.638Z,13.52
2018-05-14T00:27:43.868Z,13.51
2018-05-14T00:27:48.080Z,13.5
2018-05-14T00:27:52.405Z,13.51
2018-05-14T00:27:56.627Z,13.5
2018-05-14T00:28:00.956Z,13.51
2018-05-14T00:28:37.059Z,13.5
2018-05-14T00:28:41.165Z,13.5
2018-05-14T00:28:45.536Z,13.5
2018-05-14T00:28:49.852Z,13.5
2018-05-14T00:28:54.063Z,13.49
2018-05-14T00:28:58.357Z,13.51
2018-05-14T00:29:02.875Z,13.5
2018-05-14T00:29:06.973Z,13.5
2018-05-14T00:29:11.302Z,13.5
2018-05-14T00:29:15.626Z,13.5
2018-05-14T00:29:19.850Z,13.49
2018-05-14T00:29:24.168Z,13.5
2018-05-14T00:29:28.062Z,13.5
2018-05-14T00:29:32.287Z,13.49
2018-05-14T00:29:36.700Z,13.51
2018-05-14T00:29:41.017Z,13.5
2018-05-14T00:29:45.124Z,13.5
2018-05-14T00:29:49.478Z,13.5
2018-05-14T00:29:53.797Z,13.5
2018-05-14T00:29:58.113Z,13.49
2018-05-14T00:30:02.321Z,13.49
2018-05-14T00:30:06.318Z,13.5
2018-05-14T00:30:10.535Z,13.5
2018-05-14T00:30:14.854Z,13.5
2018-05-14T00:30:19.178Z,13.5
2018-05-14T00:30:23.279Z,13.5
2018-05-14T00:30:27.597Z,13.49
2018-05-14T00:30:31.920Z,13.5
2018-05-14T00:30:36.027Z,13.49
2018-05-14T00:30:40.353Z,13.5
2018-05-14T00:30:44.672Z,13.49
2018-05-14T00:30:48.880Z,13.49
2018-05-14T00:30:53.090Z,13.5
2018-05-14T00:30:57.408Z,13.49
2018-05-14T00:31:01.722Z,13.49
2018-05-14T00:31:05.712Z,13.49
2018-05-14T00:31:09.927Z,13.49
2018-05-14T00:31:14.256Z,13.49
2018-05-14T00:31:18.471Z,13.49
2018-05-14T00:31:22.677Z,13.5
2018-05-14T00:31:26.680Z,13.51
2018-05-14T00:31:31.000Z,13.5
2018-05-14T00:31:35.322Z,13.49
2018-05-14T00:31:39.611Z,13.5
2018-05-14T00:31:43.826Z,13.5
2018-05-14T00:31:48.034Z,13.5
2018-05-14T00:31:52.256Z,13.5
2018-05-14T00:31:56.572Z,13.49
2018-05-14T00:32:00.781Z,13.49
2018-05-14T00:32:04.982Z,13.5
2018-05-14T00:32:09.191Z,13.49
2018-05-14T00:32:13.295Z,13.5
2018-05-14T00:32:17.296Z,13.49
2018-05-14T00:32:21.519Z,13.5
2018-05-14T00:32:25.836Z,13.49
2018-05-14T00:32:29.936Z,13.5
2018-05-14T00:32:34.146Z,13.49
2018-05-14T00:32:38.354Z,13.48
2018-05-14T00:32:42.561Z,13.49
2018-05-14T00:32:46.786Z,13.5
2018-05-14T00:32:50.896Z,13.49
2018-05-14T00:32:55.105Z,13.49
2018-05-14T00:32:59.314Z,13.49
2018-05-14T00:33:03.420Z,13.48
2018-05-14T00:33:07.630Z,13.49
2018-05-14T00:33:11.825Z,13.5
2018-05-14T00:33:16.146Z,13.49
2018-05-14T00:33:20.032Z,13.49
2018-05-14T00:33:24.249Z,13.48
2018-05-14T00:33:28.570Z,13.49
2018-05-14T00:33:32.780Z,13.5
2018-05-14T00:33:37.102Z,13.49
2018-05-14T00:33:41.202Z,13.49
2018-05-14T00:33:45.520Z,13.49
2018-05-14T00:33:49.724Z,13.49
2018-05-14T00:33:54.049Z,13.5
2018-05-14T00:33:58.340Z,13.49
2018-05-14T00:34:02.694Z,13.49
2018-05-14T00:34:06.908Z,13.49
2018-05-14T00:34:11.222Z,13.49
2018-05-14T00:34:15.430Z,13.49
2018-05-14T00:34:19.754Z,13.49
2018-05-14T00:34:24.084Z,13.5
2018-05-14T00:34:28.309Z,13.49
2018-05-14T00:34:32.622Z,13.49
2018-05-14T00:34:36.943Z,13.49
2018-05-14T00:34:41.263Z,13.48
2018-05-14T00:34:45.476Z,13.5
2018-05-14T00:34:49.687Z,13.49
2018-05-14T00:34:53.796Z,13.48
2018-05-14T00:34:57.897Z,13.49
2018-05-14T00:35:01.895Z,13.49
2018-05-14T00:35:06.008Z,13.49
2018-05-14T00:35:10.128Z,13.49
2018-05-14T00:35:14.338Z,13.49
2018-05-14T00:35:18.658Z,13.49
2018-05-14T00:35:22.983Z,13.49
2018-05-14T00:35:27.338Z,13.49
2018-05-14T00:35:31.564Z,13.49
2018-05-14T00:35:35.777Z,13.49
2018-05-14T00:35:39.988Z,13.5
2018-05-14T00:35:44.319Z,13.5
2018-05-14T00:35:48.418Z,13.49
2018-05-14T00:35:52.747Z,13.48
2018-05-14T00:35:56.741Z,13.49
2018-05-14T00:36:01.063Z,13.48
2018-05-14T00:36:05.284Z,13.48
2018-05-14T00:36:09.391Z,13.49
2018-05-14T00:36:13.604Z,13.49
2018-05-14T00:36:17.924Z,13.48
2018-05-14T00:36:21.929Z,13.49
2018-05-14T00:36:26.254Z,13.49
2018-05-14T00:36:30.473Z,13.48
2018-05-14T00:36:34.684Z,13.48
2018-05-14T00:36:38.784Z,13.48
2018-05-14T00:36:42.887Z,13.48
2018-05-14T00:36:47.205Z,13.48
2018-05-14T00:36:51.427Z,13.48
2018-05-14T00:36:55.652Z,13.48
2018-05-14T00:36:59.861Z,13.47
2018-05-14T00:37:04.073Z,13.48
2018-05-14T00:37:08.281Z,13.47
2018-05-14T00:37:12.606Z,13.47
2018-05-14T00:37:16.926Z,13.46
2018-05-14T00:37:21.138Z,13.47
2018-05-14T00:37:25.457Z,13.47
2018-05-14T00:37:29.671Z,13.47
2018-05-14T00:37:33.992Z,13.48
2018-05-14T00:37:38.316Z,13.47
2018-05-14T00:37:42.634Z,13.47
2018-05-14T00:37:47.015Z,13.48
2018-05-14T00:37:51.221Z,13.47
2018-05-14T00:37:55.432Z,13.47
2018-05-14T00:37:59.833Z,13.47
2018-05-14T00:38:03.944Z,13.47
2018-05-14T00:38:08.162Z,13.46
2018-05-14T00:38:12.490Z,13.47
2018-05-14T00:38:16.699Z,13.46
2018-05-14T00:38:20.799Z,13.46
2018-05-14T00:38:24.792Z,13.46
2018-05-14T00:38:29.004Z,13.46
2018-05-14T00:38:33.321Z,13.46
2018-05-14T00:38:37.424Z,13.46
2018-05-14T00:38:41.527Z,13.47
2018-05-14T00:38:45.739Z,13.46
2018-05-14T00:38:49.960Z,13.46
2018-05-14T00:38:54.168Z,13.47
2018-05-14T00:38:58.487Z,13.46
2018-05-14T00:39:02.695Z,13.46
2018-05-14T00:39:07.014Z,13.45
2018-05-14T00:39:11.331Z,13.46
2018-05-14T00:39:15.543Z,13.46
2018-05-14T00:39:19.865Z,13.46
2018-05-14T00:39:23.971Z,13.46
2018-05-14T00:39:27.861Z,13.47
2018-05-14T00:39:32.018Z,13.46
2018-05-14T00:39:36.338Z,13.46
2018-05-14T00:39:40.546Z,13.45
2018-05-14T00:39:44.750Z,13.45
2018-05-14T00:39:48.748Z,13.46
2018-05-14T00:39:52.850Z,13.46
2018-05-14T00:39:57.064Z,13.46
2018-05-14T00:40:01.163Z,13.46
2018-05-14T00:40:05.267Z,13.46
2018-05-14T00:40:09.593Z,13.45
2018-05-14T00:40:13.587Z,13.45
2018-05-14T00:40:17.908Z,13.44
2018-05-14T00:40:22.021Z,13.45
2018-05-14T00:40:26.230Z,13.44
2018-05-14T00:40:30.450Z,13.44
2018-05-14T00:40:34.665Z,13.44
2018-05-14T00:40:38.993Z,13.44
2018-05-14T00:40:43.312Z,13.44
2018-05-14T00:40:47.307Z,13.44
2018-05-14T00:40:51.617Z,13.43
2018-05-14T00:40:55.723Z,13.44
2018-05-14T00:41:00.043Z,13.44
2018-05-14T00:41:04.361Z,13.44
2018-05-14T00:41:08.357Z,13.44
2018-05-14T00:41:12.464Z,13.45
2018-05-14T00:41:16.567Z,13.44
2018-05-14T00:41:20.663Z,13.44
2018-05-14T00:41:24.876Z,13.44
2018-05-14T00:41:28.765Z,13.44
2018-05-14T00:41:32.974Z,13.44
2018-05-14T00:41:37.303Z,13.43
2018-05-14T00:41:41.529Z,13.44
2018-05-14T00:41:45.630Z,13.44
2018-05-14T00:41:49.841Z,13.44
2018-05-14T00:41:54.057Z,13.43
2018-05-14T00:41:58.263Z,13.44
2018-05-14T00:42:02.475Z,13.43
2018-05-14T00:42:06.593Z,13.44
2018-05-14T00:42:10.807Z,13.43
2018-05-14T00:42:15.130Z,13.44
2018-05-14T00:42:19.233Z,13.43
2018-05-14T00:42:23.340Z,13.43
2018-05-14T00:42:27.554Z,13.43
2018-05-14T00:42:31.892Z,13.43
2018-05-14T00:42:35.992Z,13.43
2018-05-14T00:42:40.209Z,13.43
2018-05-14T00:42:44.415Z,13.43
2018-05-14T00:42:48.523Z,13.43
2018-05-14T00:42:52.851Z,13.42
2018-05-14T00:42:57.177Z,13.42
2018-05-14T00:43:01.392Z,13.42
2018-05-14T00:43:05.606Z,13.41
2018-05-14T00:43:09.830Z,13.41
2018-05-14T00:43:14.043Z,13.42
2018-05-14T00:43:18.252Z,13.42
2018-05-14T00:43:22.466Z,13.41
2018-05-14T00:43:26.781Z,13.41
2018-05-14T00:43:31.104Z,13.41
2018-05-14T00:43:35.205Z,13.42
2018-05-14T00:43:39.621Z,13.41
2018-05-14T00:43:43.833Z,13.41
2018-05-14T00:43:48.156Z,13.42
2018-05-14T00:43:52.471Z,13.41
2018-05-14T00:43:56.688Z,13.41
2018-05-14T00:44:00.899Z,13.42
2018-05-14T00:44:05.333Z,13.41
2018-05-14T00:44:09.432Z,13.41
2018-05-14T00:44:13.756Z,13.41
2018-05-14T00:44:18.079Z,13.41
2018-05-14T00:44:22.186Z,13.41
2018-05-14T00:44:26.490Z,13.41
2018-05-14T00:44:30.593Z,13.41
2018-05-14T00:44:34.921Z,13.41
2018-05-14T00:44:39.340Z,13.41
2018-05-14T00:44:43.560Z,13.41
2018-05-14T00:44:47.779Z,13.41
2018-05-14T00:44:51.989Z,13.41
2018-05-14T00:44:56.316Z,13.41
2018-05-14T00:45:00.645Z,13.4
2018-05-14T00:45:04.746Z,13.4
2018-05-14T00:45:08.849Z,13.4
2018-05-14T00:45:13.067Z,13.4
2018-05-14T00:45:17.169Z,13.4
2018-05-14T00:45:21.268Z,13.4
2018-05-14T00:45:25.496Z,13.4
2018-05-14T00:45:29.813Z,13.4
2018-05-14T00:45:33.918Z,13.4
2018-05-14T00:45:38.238Z,13.39
2018-05-14T00:45:42.447Z,13.39
2018-05-14T00:45:46.549Z,13.39
2018-05-14T00:45:50.766Z,13.39
2018-05-14T00:45:54.873Z,13.39
2018-05-14T00:45:59.084Z,13.39
2018-05-14T00:46:03.493Z,13.38
2018-05-14T00:46:07.826Z,13.38
2018-05-14T00:46:12.039Z,13.38
2018-05-14T00:46:16.051Z,13.38
2018-05-14T00:46:20.376Z,13.38
2018-05-14T00:46:24.698Z,13.38
2018-05-14T00:46:28.705Z,13.38
2018-05-14T00:46:33.031Z,13.38
2018-05-14T00:46:37.352Z,13.38
2018-05-14T00:46:41.566Z,13.38
2018-05-14T00:46:45.775Z,13.38
2018-05-14T00:46:50.096Z,13.38
2018-05-14T00:46:54.196Z,13.38
2018-05-14T00:46:58.416Z,13.38
2018-05-14T00:47:02.626Z,13.39
2018-05-14T00:47:06.944Z,13.38
2018-05-14T00:47:11.267Z,13.39
2018-05-14T00:47:15.592Z,13.39
2018-05-14T00:47:19.907Z,13.38
2018-05-14T00:47:24.020Z,13.38
2018-05-14T00:47:28.240Z,13.38
2018-05-14T00:47:32.446Z,13.39
2018-05-14T00:47:36.627Z,13.38
2018-05-14T00:47:40.841Z,13.38
2018-05-14T00:47:45.161Z,13.38
2018-05-14T00:47:49.481Z,13.38
2018-05-14T00:47:53.697Z,13.38
2018-05-14T00:47:57.916Z,13.37
2018-05-14T00:48:02.141Z,13.37
2018-05-14T00:48:06.295Z,13.37
2018-05-14T00:48:10.611Z,13.37
2018-05-14T00:48:14.939Z,13.37
2018-05-14T00:48:19.260Z,13.37
2018-05-14T00:48:23.366Z,13.37
2018-05-14T00:48:27.571Z,13.37
2018-05-14T00:48:31.671Z,13.38
2018-05-14T00:48:35.776Z,13.37
2018-05-14T00:48:39.997Z,13.37
2018-05-14T00:48:44.314Z,13.37
2018-05-14T00:48:48.632Z,13.37
2018-05-14T00:48:52.842Z,13.37
2018-05-14T00:48:57.054Z,13.37
2018-05-14T00:49:01.376Z,13.38
2018-05-14T00:49:05.705Z,13.37
2018-05-14T00:49:09.916Z,13.37
2018-05-14T00:49:14.108Z,13.37
2018-05-14T00:49:18.367Z,13.38
2018-05-14T00:49:22.971Z,13.37
2018-05-14T00:49:27.615Z,13.37
2018-05-14T00:49:31.840Z,13.37
2018-05-14T00:49:36.688Z,13.37
2018-05-14T00:49:41.002Z,13.37
2018-05-14T00:49:45.110Z,13.37
2018-05-14T00:49:49.317Z,13.37
2018-05-14T00:49:53.565Z,13.37
2018-05-14T00:49:57.775Z,13.37
2018-05-14T00:50:02.143Z,13.36
2018-05-14T00:50:06.138Z,13.36
2018-05-14T00:50:10.454Z,13.37
2018-05-14T00:50:14.771Z,13.36
2018-05-14T00:50:18.977Z,13.36
2018-05-14T00:50:23.079Z,13.37
2018-05-14T00:50:27.287Z,13.36
2018-05-14T00:50:31.502Z,13.36
2018-05-14T00:50:35.719Z,13.35
2018-05-14T00:50:39.932Z,13.36
2018-05-14T00:50:44.249Z,13.35
2018-05-14T00:50:48.455Z,13.34
2018-05-14T00:50:52.665Z,13.35
2018-05-14T00:50:56.880Z,13.35
2018-05-14T00:51:01.096Z,13.36
2018-05-14T00:51:05.198Z,13.35
2018-05-14T00:51:09.501Z,13.34
2018-05-14T00:51:13.712Z,13.35
2018-05-14T00:51:18.027Z,13.35
2018-05-14T00:51:22.132Z,13.35
2018-05-14T00:51:26.348Z,13.34
2018-05-14T00:51:30.558Z,13.35
2018-05-14T00:51:34.334Z,13.34
2018-05-14T00:51:38.437Z,13.34
2018-05-14T00:51:42.763Z,13.34
2018-05-14T00:51:47.081Z,13.33
2018-05-14T00:51:50.966Z,13.34
2018-05-14T00:51:55.179Z,13.34
2018-05-14T00:51:59.274Z,13.34
2018-05-14T00:52:03.158Z,13.34
2018-05-14T00:52:07.478Z,13.33
2018-05-14T00:52:11.693Z,13.33
2018-05-14T00:52:16.017Z,13.33
2018-05-14T00:52:20.342Z,13.32
2018-05-14T00:52:24.557Z,13.33
2018-05-14T00:52:28.775Z,13.32
2018-05-14T00:52:32.878Z,13.33
2018-05-14T00:52:37.088Z,13.32
2018-05-14T00:52:41.188Z,13.33
2018-05-14T00:52:45.289Z,13.34
2018-05-14T00:52:49.684Z,13.33
2018-05-14T00:52:53.904Z,13.33
2018-05-14T00:52:58.221Z,13.33
2018-05-14T00:53:02.559Z,13.33
2018-05-14T00:53:06.787Z,13.33
2018-05-14T00:53:11.107Z,13.32
2018-05-14T00:53:15.423Z,13.32
2018-05-14T00:53:19.738Z,13.32
2018-05-14T00:53:23.730Z,13.32
2018-05-14T00:53:28.026Z,13.32
2018-05-14T00:53:32.240Z,13.31
2018-05-14T00:53:36.472Z,13.32
2018-05-14T00:53:40.697Z,13.31
2018-05-14T00:53:45.020Z,13.31
2018-05-14T00:53:49.338Z,13.32
2018-05-14T00:53:53.664Z,13.31
2018-05-14T00:53:57.879Z,13.31
2018-05-14T00:54:02.299Z,13.31
2018-05-14T00:54:06.481Z,13.31
2018-05-14T00:54:10.687Z,13.32
2018-05-14T00:54:14.893Z,13.32
2018-05-14T00:54:19.238Z,13.32
2018-05-14T00:54:23.450Z,13.31
2018-05-14T00:54:27.556Z,13.31
2018-05-14T00:54:31.869Z,13.32
2018-05-14T00:54:36.081Z,13.31
2018-05-14T00:54:40.180Z,13.31
2018-05-14T00:54:44.392Z,13.31
2018-05-14T00:54:48.717Z,13.31
2018-05-14T00:54:53.010Z,13.3
2018-05-14T00:54:57.332Z,13.31
2018-05-14T00:55:01.541Z,13.33
2018-05-14T00:55:05.518Z,13.31